sensor_id;sensor_type;location;lat;lon;timestamp;temperature;humidity
18611;DHT22;9435;52.122;5.502;2023-09-30T00:00:28;12.00;99.90
18611;DHT22;9435;52.122;5.502;2023-09-30T00:02:55;12.00;99.90
18611;DHT22;9435;52.122;5.502;2023-09-30T00:05:22;12.00;99.90
18611;DHT22;9435;52.122;5.502;2023-09-30T00:07:49;12.00;99.90
18611;DHT22;9435;52.122;5.502;2023-09-30T00:10:16;12.00;99.90
18611;DHT22;9435;52.122;5.502;2023-09-30T00:12:43;12.00;99.90
18611;DHT22;9435;52.122;5.502;2023-09-30T00:15:12;12.00;99.90
18611;DHT22;9435;52.122;5.502;2023-09-30T00:17:39;12.10;99.90
18611;DHT22;9435;52.122;5.502;2023-09-30T00:20:08;12.10;99.90
18611;DHT22;9435;52.122;5.502;2023-09-30T00:22:35;12.20;99.90
18611;DHT22;9435;52.122;5.502;2023-09-30T00:25:02;12.10;99.90
18611;DHT22;9435;52.122;5.502;2023-09-30T00:27:30;12.10;99.90
18611;DHT22;9435;52.122;5.502;2023-09-30T00:29:57;12.10;99.90
18611;DHT22;9435;52.122;5.502;2023-09-30T00:32:25;12.10;99.90
18611;DHT22;9435;52.122;5.502;2023-09-30T00:34:52;12.10;99.90
18611;DHT22;9435;52.122;5.502;2023-09-30T00:37:20;12.10;99.90
18611;DHT22;9435;52.122;5.502;2023-09-30T00:39:47;12.20;99.90
18611;DHT22;9435;52.122;5.502;2023-09-30T00:42:15;12.10;99.90
18611;DHT22;9435;52.122;5.502;2023-09-30T00:44:42;12.20;99.90
18611;DHT22;9435;52.122;5.502;2023-09-30T00:47:09;12.20;99.90
18611;DHT22;9435;52.122;5.502;2023-09-30T00:49:38;12.20;99.90
18611;DHT22;9435;52.122;5.502;2023-09-30T00:52:05;12.20;99.90
18611;DHT22;9435;52.122;5.502;2023-09-30T00:54:33;12.10;99.90
18611;DHT22;9435;52.122;5.502;2023-09-30T00:57:01;12.10;99.90
18611;DHT22;9435;52.122;5.502;2023-09-30T00:59:30;12.10;99.90
18611;DHT22;9435;52.122;5.502;2023-09-30T01:01:59;12.20;99.90
18611;DHT22;9435;52.122;5.502;2023-09-30T01:04:27;12.20;99.90
18611;DHT22;9435;52.122;5.502;2023-09-30T01:06:56;12.10;99.90
18611;DHT22;9435;52.122;5.502;2023-09-30T01:09:24;12.20;99.90
18611;DHT22;9435;52.122;5.502;2023-09-30T01:11:51;12.20;99.90
18611;DHT22;9435;52.122;5.502;2023-09-30T01:14:26;12.20;99.90
18611;DHT22;9435;52.122;5.502;2023-09-30T01:16:53;12.20;99.90
18611;DHT22;9435;52.122;5.502;2023-09-30T01:19:21;12.20;99.90
18611;DHT22;9435;52.122;5.502;2023-09-30T01:21:52;12.10;99.90
18611;DHT22;9435;52.122;5.502;2023-09-30T01:24:20;12.10;99.90
18611;DHT22;9435;52.122;5.502;2023-09-30T01:26:48;12.00;99.90
18611;DHT22;9435;52.122;5.502;2023-09-30T01:29:15;12.00;99.90
18611;DHT22;9435;52.122;5.502;2023-09-30T01:31:42;11.90;99.90
18611;DHT22;9435;52.122;5.502;2023-09-30T01:34:13;11.90;99.90
18611;DHT22;9435;52.122;5.502;2023-09-30T01:36:41;11.90;99.90
18611;DHT22;9435;52.122;5.502;2023-09-30T01:39:10;11.90;99.90
18611;DHT22;9435;52.122;5.502;2023-09-30T01:41:38;11.90;99.90
18611;DHT22;9435;52.122;5.502;2023-09-30T01:44:05;11.90;99.90
18611;DHT22;9435;52.122;5.502;2023-09-30T01:46:33;11.90;99.90
18611;DHT22;9435;52.122;5.502;2023-09-30T01:49:00;11.90;99.90
18611;DHT22;9435;52.122;5.502;2023-09-30T01:51:28;11.90;99.90
18611;DHT22;9435;52.122;5.502;2023-09-30T01:53:55;11.90;99.90
18611;DHT22;9435;52.122;5.502;2023-09-30T01:56:24;11.90;99.90
18611;DHT22;9435;52.122;5.502;2023-09-30T01:58:51;12.00;99.90
18611;DHT22;9435;52.122;5.502;2023-09-30T02:01:18;12.00;99.90
18611;DHT22;9435;52.122;5.502;2023-09-30T02:03:45;12.00;99.90
18611;DHT22;9435;52.122;5.502;2023-09-30T02:06:12;12.00;99.90
18611;DHT22;9435;52.122;5.502;2023-09-30T02:08:39;12.00;99.90
18611;DHT22;9435;52.122;5.502;2023-09-30T02:11:07;12.00;99.90
18611;DHT22;9435;52.122;5.502;2023-09-30T02:13:38;12.00;99.90
18611;DHT22;9435;52.122;5.502;2023-09-30T02:16:12;12.00;99.90
18611;DHT22;9435;52.122;5.502;2023-09-30T02:18:39;12.00;99.90
18611;DHT22;9435;52.122;5.502;2023-09-30T02:21:07;12.00;99.90
18611;DHT22;9435;52.122;5.502;2023-09-30T02:23:35;12.00;99.90
18611;DHT22;9435;52.122;5.502;2023-09-30T02:26:03;12.00;99.90
18611;DHT22;9435;52.122;5.502;2023-09-30T02:28:30;12.00;99.90
18611;DHT22;9435;52.122;5.502;2023-09-30T02:31:01;12.00;99.90
18611;DHT22;9435;52.122;5.502;2023-09-30T02:33:28;12.00;99.90
18611;DHT22;9435;52.122;5.502;2023-09-30T02:35:55;12.00;99.90
18611;DHT22;9435;52.122;5.502;2023-09-30T02:38:22;12.00;99.90
18611;DHT22;9435;52.122;5.502;2023-09-30T02:40:50;12.10;99.90
18611;DHT22;9435;52.122;5.502;2023-09-30T02:43:18;12.10;99.90
18611;DHT22;9435;52.122;5.502;2023-09-30T02:45:45;12.10;99.90
18611;DHT22;9435;52.122;5.502;2023-09-30T02:48:14;12.10;99.90
18611;DHT22;9435;52.122;5.502;2023-09-30T02:50:42;12.10;99.90
18611;DHT22;9435;52.122;5.502;2023-09-30T02:53:11;12.10;99.90
18611;DHT22;9435;52.122;5.502;2023-09-30T02:55:38;12.10;99.90
18611;DHT22;9435;52.122;5.502;2023-09-30T02:58:06;12.10;99.90
18611;DHT22;9435;52.122;5.502;2023-09-30T03:00:34;12.10;99.90
18611;DHT22;9435;52.122;5.502;2023-09-30T03:03:02;12.20;99.90
18611;DHT22;9435;52.122;5.502;2023-09-30T03:05:31;12.10;99.90
18611;DHT22;9435;52.122;5.502;2023-09-30T03:07:59;12.10;99.90
18611;DHT22;9435;52.122;5.502;2023-09-30T03:10:26;12.20;99.90
18611;DHT22;9435;52.122;5.502;2023-09-30T03:12:54;12.20;99.90
18611;DHT22;9435;52.122;5.502;2023-09-30T03:15:22;12.20;99.90
18611;DHT22;9435;52.122;5.502;2023-09-30T03:17:50;12.20;99.90
18611;DHT22;9435;52.122;5.502;2023-09-30T03:20:33;12.20;99.90
18611;DHT22;9435;52.122;5.502;2023-09-30T03:23:02;12.20;99.90
18611;DHT22;9435;52.122;5.502;2023-09-30T03:25:30;12.30;99.90
18611;DHT22;9435;52.122;5.502;2023-09-30T03:27:58;12.30;99.90
18611;DHT22;9435;52.122;5.502;2023-09-30T03:30:25;12.30;99.90
18611;DHT22;9435;52.122;5.502;2023-09-30T03:32:52;12.30;99.90
18611;DHT22;9435;52.122;5.502;2023-09-30T03:35:19;12.30;99.90
18611;DHT22;9435;52.122;5.502;2023-09-30T03:37:48;12.30;99.90
18611;DHT22;9435;52.122;5.502;2023-09-30T03:40:16;12.40;99.90
18611;DHT22;9435;52.122;5.502;2023-09-30T03:42:46;12.40;99.90
18611;DHT22;9435;52.122;5.502;2023-09-30T03:45:15;12.40;99.90
18611;DHT22;9435;52.122;5.502;2023-09-30T03:47:43;12.40;99.90
18611;DHT22;9435;52.122;5.502;2023-09-30T03:50:11;12.40;99.90
18611;DHT22;9435;52.122;5.502;2023-09-30T03:52:41;12.40;99.90
18611;DHT22;9435;52.122;5.502;2023-09-30T03:55:11;12.40;99.90
18611;DHT22;9435;52.122;5.502;2023-09-30T03:57:40;12.30;99.90
18611;DHT22;9435;52.122;5.502;2023-09-30T04:00:08;12.30;99.90
18611;DHT22;9435;52.122;5.502;2023-09-30T04:02:41;12.40;99.90
18611;DHT22;9435;52.122;5.502;2023-09-30T04:05:09;12.40;99.90
18611;DHT22;9435;52.122;5.502;2023-09-30T04:07:37;12.40;99.90
18611;DHT22;9435;52.122;5.502;2023-09-30T04:10:05;12.40;99.90
18611;DHT22;9435;52.122;5.502;2023-09-30T04:12:33;12.40;99.90
18611;DHT22;9435;52.122;5.502;2023-09-30T04:15:00;12.40;99.90
18611;DHT22;9435;52.122;5.502;2023-09-30T04:17:29;12.40;99.90
18611;DHT22;9435;52.122;5.502;2023-09-30T04:19:56;12.40;99.90
18611;DHT22;9435;52.122;5.502;2023-09-30T04:22:25;12.40;99.90
18611;DHT22;9435;52.122;5.502;2023-09-30T04:24:55;12.40;99.90
18611;DHT22;9435;52.122;5.502;2023-09-30T04:27:22;12.40;99.90
18611;DHT22;9435;52.122;5.502;2023-09-30T04:29:51;12.40;99.90
18611;DHT22;9435;52.122;5.502;2023-09-30T04:32:19;12.40;99.90
18611;DHT22;9435;52.122;5.502;2023-09-30T04:34:46;12.40;99.90
18611;DHT22;9435;52.122;5.502;2023-09-30T04:37:13;12.40;99.90
18611;DHT22;9435;52.122;5.502;2023-09-30T04:39:40;12.40;99.90
18611;DHT22;9435;52.122;5.502;2023-09-30T04:42:07;12.40;99.90
18611;DHT22;9435;52.122;5.502;2023-09-30T04:44:36;12.40;99.90
18611;DHT22;9435;52.122;5.502;2023-09-30T04:47:06;12.40;99.90
18611;DHT22;9435;52.122;5.502;2023-09-30T04:49:33;12.30;99.90
18611;DHT22;9435;52.122;5.502;2023-09-30T04:52:01;12.40;99.90
18611;DHT22;9435;52.122;5.502;2023-09-30T04:54:28;12.30;99.90
18611;DHT22;9435;52.122;5.502;2023-09-30T04:56:55;12.30;99.90
18611;DHT22;9435;52.122;5.502;2023-09-30T04:59:23;12.30;99.90
18611;DHT22;9435;52.122;5.502;2023-09-30T05:01:51;12.30;99.90
18611;DHT22;9435;52.122;5.502;2023-09-30T05:04:20;12.30;99.90
18611;DHT22;9435;52.122;5.502;2023-09-30T05:06:49;12.30;99.90
18611;DHT22;9435;52.122;5.502;2023-09-30T05:09:16;12.30;99.90
18611;DHT22;9435;52.122;5.502;2023-09-30T05:11:43;12.30;99.90
18611;DHT22;9435;52.122;5.502;2023-09-30T05:14:11;12.30;99.90
18611;DHT22;9435;52.122;5.502;2023-09-30T05:16:39;12.30;99.90
18611;DHT22;9435;52.122;5.502;2023-09-30T05:19:06;12.30;99.90
18611;DHT22;9435;52.122;5.502;2023-09-30T05:21:34;12.30;99.90
18611;DHT22;9435;52.122;5.502;2023-09-30T05:24:03;12.30;99.90
18611;DHT22;9435;52.122;5.502;2023-09-30T05:26:31;12.30;99.90
18611;DHT22;9435;52.122;5.502;2023-09-30T05:28:58;12.30;99.90
18611;DHT22;9435;52.122;5.502;2023-09-30T05:31:26;12.20;99.90
18611;DHT22;9435;52.122;5.502;2023-09-30T05:33:53;12.20;99.90
18611;DHT22;9435;52.122;5.502;2023-09-30T05:36:21;12.30;99.90
18611;DHT22;9435;52.122;5.502;2023-09-30T05:38:49;12.20;99.90
18611;DHT22;9435;52.122;5.502;2023-09-30T05:41:16;12.20;99.90
18611;DHT22;9435;52.122;5.502;2023-09-30T05:43:46;12.20;99.90
18611;DHT22;9435;52.122;5.502;2023-09-30T05:46:14;12.20;99.90
18611;DHT22;9435;52.122;5.502;2023-09-30T05:48:42;12.20;99.90
18611;DHT22;9435;52.122;5.502;2023-09-30T05:51:09;12.10;99.90
18611;DHT22;9435;52.122;5.502;2023-09-30T05:53:40;12.10;99.90
18611;DHT22;9435;52.122;5.502;2023-09-30T05:56:08;12.20;99.90
18611;DHT22;9435;52.122;5.502;2023-09-30T05:58:37;12.10;99.90
18611;DHT22;9435;52.122;5.502;2023-09-30T06:01:07;12.20;99.90
18611;DHT22;9435;52.122;5.502;2023-09-30T06:03:36;12.10;99.90
18611;DHT22;9435;52.122;5.502;2023-09-30T06:06:11;12.10;99.90
18611;DHT22;9435;52.122;5.502;2023-09-30T06:08:45;12.10;99.90
18611;DHT22;9435;52.122;5.502;2023-09-30T06:11:18;12.10;99.90
18611;DHT22;9435;52.122;5.502;2023-09-30T06:13:45;12.10;99.90
18611;DHT22;9435;52.122;5.502;2023-09-30T06:16:15;12.00;99.90
18611;DHT22;9435;52.122;5.502;2023-09-30T06:18:43;12.10;99.90
18611;DHT22;9435;52.122;5.502;2023-09-30T06:21:11;12.10;99.90
18611;DHT22;9435;52.122;5.502;2023-09-30T06:23:39;12.10;99.90
18611;DHT22;9435;52.122;5.502;2023-09-30T06:26:07;12.10;99.90
18611;DHT22;9435;52.122;5.502;2023-09-30T06:28:38;12.10;99.90
18611;DHT22;9435;52.122;5.502;2023-09-30T06:31:09;12.10;99.90
18611;DHT22;9435;52.122;5.502;2023-09-30T06:33:37;12.20;99.90
18611;DHT22;9435;52.122;5.502;2023-09-30T06:36:08;12.20;99.90
18611;DHT22;9435;52.122;5.502;2023-09-30T06:38:38;12.30;99.90
18611;DHT22;9435;52.122;5.502;2023-09-30T06:41:14;12.40;99.90
18611;DHT22;9435;52.122;5.502;2023-09-30T06:43:50;12.40;99.90
18611;DHT22;9435;52.122;5.502;2023-09-30T06:46:17;12.40;99.90
18611;DHT22;9435;52.122;5.502;2023-09-30T06:48:44;12.50;99.90
18611;DHT22;9435;52.122;5.502;2023-09-30T06:51:21;12.50;99.90
18611;DHT22;9435;52.122;5.502;2023-09-30T06:54:00;12.60;99.90
18611;DHT22;9435;52.122;5.502;2023-09-30T06:56:27;12.70;99.90
18611;DHT22;9435;52.122;5.502;2023-09-30T06:59:03;12.80;99.90
18611;DHT22;9435;52.122;5.502;2023-09-30T07:01:32;12.80;99.90
18611;DHT22;9435;52.122;5.502;2023-09-30T07:03:59;13.00;99.90
18611;DHT22;9435;52.122;5.502;2023-09-30T07:06:27;13.10;99.90
18611;DHT22;9435;52.122;5.502;2023-09-30T07:08:54;13.20;99.90
18611;DHT22;9435;52.122;5.502;2023-09-30T07:11:28;13.30;99.90
18611;DHT22;9435;52.122;5.502;2023-09-30T07:13:59;13.40;99.90
18611;DHT22;9435;52.122;5.502;2023-09-30T07:16:27;13.50;99.90
18611;DHT22;9435;52.122;5.502;2023-09-30T07:18:54;13.60;99.90
18611;DHT22;9435;52.122;5.502;2023-09-30T07:21:21;13.80;99.90
18611;DHT22;9435;52.122;5.502;2023-09-30T07:23:49;13.80;99.90
18611;DHT22;9435;52.122;5.502;2023-09-30T07:26:18;14.00;99.90
18611;DHT22;9435;52.122;5.502;2023-09-30T07:28:49;14.10;99.90
18611;DHT22;9435;52.122;5.502;2023-09-30T07:31:18;14.20;99.90
18611;DHT22;9435;52.122;5.502;2023-09-30T07:33:45;14.40;99.90
18611;DHT22;9435;52.122;5.502;2023-09-30T07:36:13;14.50;99.90
18611;DHT22;9435;52.122;5.502;2023-09-30T07:38:41;14.60;99.90
18611;DHT22;9435;52.122;5.502;2023-09-30T07:41:08;14.70;99.90
18611;DHT22;9435;52.122;5.502;2023-09-30T07:43:36;14.80;99.90
18611;DHT22;9435;52.122;5.502;2023-09-30T07:46:05;15.00;99.90
18611;DHT22;9435;52.122;5.502;2023-09-30T07:48:34;15.10;99.90
18611;DHT22;9435;52.122;5.502;2023-09-30T07:51:02;15.20;99.90
18611;DHT22;9435;52.122;5.502;2023-09-30T07:53:30;15.30;99.90
18611;DHT22;9435;52.122;5.502;2023-09-30T07:55:57;15.40;99.90
18611;DHT22;9435;52.122;5.502;2023-09-30T07:58:24;15.50;99.90
18611;DHT22;9435;52.122;5.502;2023-09-30T08:00:52;15.50;99.90
18611;DHT22;9435;52.122;5.502;2023-09-30T08:03:19;15.60;99.90
18611;DHT22;9435;52.122;5.502;2023-09-30T08:05:48;15.70;99.90
18611;DHT22;9435;52.122;5.502;2023-09-30T08:08:16;15.80;99.90
18611;DHT22;9435;52.122;5.502;2023-09-30T08:10:43;15.90;99.90
18611;DHT22;9435;52.122;5.502;2023-09-30T08:13:10;16.00;99.90
18611;DHT22;9435;52.122;5.502;2023-09-30T08:15:38;16.20;99.90
18611;DHT22;9435;52.122;5.502;2023-09-30T08:18:06;16.30;99.90
18611;DHT22;9435;52.122;5.502;2023-09-30T08:20:34;16.40;99.90
18611;DHT22;9435;52.122;5.502;2023-09-30T08:23:03;16.40;99.90
18611;DHT22;9435;52.122;5.502;2023-09-30T08:25:30;16.50;99.90
18611;DHT22;9435;52.122;5.502;2023-09-30T08:27:57;16.60;99.90
18611;DHT22;9435;52.122;5.502;2023-09-30T08:30:24;16.70;99.90
18611;DHT22;9435;52.122;5.502;2023-09-30T08:32:51;16.80;99.90
18611;DHT22;9435;52.122;5.502;2023-09-30T08:35:19;16.90;99.90
18611;DHT22;9435;52.122;5.502;2023-09-30T08:37:46;16.90;99.90
18611;DHT22;9435;52.122;5.502;2023-09-30T08:40:14;17.00;99.90
18611;DHT22;9435;52.122;5.502;2023-09-30T08:42:47;17.00;99.90
18611;DHT22;9435;52.122;5.502;2023-09-30T08:45:17;17.20;99.90
18611;DHT22;9435;52.122;5.502;2023-09-30T08:47:45;17.30;99.90
18611;DHT22;9435;52.122;5.502;2023-09-30T08:50:13;17.30;99.90
18611;DHT22;9435;52.122;5.502;2023-09-30T08:52:41;17.30;99.90
18611;DHT22;9435;52.122;5.502;2023-09-30T08:55:09;17.50;99.90
18611;DHT22;9435;52.122;5.502;2023-09-30T08:57:40;17.60;99.90
18611;DHT22;9435;52.122;5.502;2023-09-30T09:00:09;17.60;99.90
18611;DHT22;9435;52.122;5.502;2023-09-30T09:02:38;17.70;99.90
18611;DHT22;9435;52.122;5.502;2023-09-30T09:05:06;17.70;99.90
18611;DHT22;9435;52.122;5.502;2023-09-30T09:07:34;17.80;99.90
18611;DHT22;9435;52.122;5.502;2023-09-30T09:10:06;17.90;99.90
18611;DHT22;9435;52.122;5.502;2023-09-30T09:12:34;18.00;99.90
18611;DHT22;9435;52.122;5.502;2023-09-30T09:15:05;18.10;99.90
18611;DHT22;9435;52.122;5.502;2023-09-30T09:17:43;18.10;99.90
18611;DHT22;9435;52.122;5.502;2023-09-30T09:20:16;18.20;99.90
18611;DHT22;9435;52.122;5.502;2023-09-30T09:22:46;18.30;99.90
18611;DHT22;9435;52.122;5.502;2023-09-30T09:25:14;18.30;99.90
18611;DHT22;9435;52.122;5.502;2023-09-30T09:27:41;18.40;99.90
18611;DHT22;9435;52.122;5.502;2023-09-30T09:30:20;18.50;99.90
18611;DHT22;9435;52.122;5.502;2023-09-30T09:32:58;18.50;99.90
18611;DHT22;9435;52.122;5.502;2023-09-30T09:35:26;18.60;99.90
18611;DHT22;9435;52.122;5.502;2023-09-30T09:37:56;18.70;99.90
18611;DHT22;9435;52.122;5.502;2023-09-30T09:40:23;18.60;99.90
18611;DHT22;9435;52.122;5.502;2023-09-30T09:42:51;18.50;99.90
18611;DHT22;9435;52.122;5.502;2023-09-30T09:45:23;18.60;99.90
18611;DHT22;9435;52.122;5.502;2023-09-30T09:47:51;18.50;99.90
18611;DHT22;9435;52.122;5.502;2023-09-30T09:50:19;18.50;99.90
18611;DHT22;9435;52.122;5.502;2023-09-30T09:52:49;18.60;99.90
18611;DHT22;9435;52.122;5.502;2023-09-30T09:55:17;18.80;99.90
18611;DHT22;9435;52.122;5.502;2023-09-30T09:57:45;18.80;99.90
18611;DHT22;9435;52.122;5.502;2023-09-30T10:00:15;19.00;99.90
18611;DHT22;9435;52.122;5.502;2023-09-30T10:02:46;19.00;99.90
18611;DHT22;9435;52.122;5.502;2023-09-30T10:05:14;19.10;99.90
18611;DHT22;9435;52.122;5.502;2023-09-30T10:07:47;19.20;99.90
18611;DHT22;9435;52.122;5.502;2023-09-30T10:10:19;19.30;99.90
18611;DHT22;9435;52.122;5.502;2023-09-30T10:12:46;19.40;99.90
18611;DHT22;9435;52.122;5.502;2023-09-30T10:15:36;19.30;99.90
18611;DHT22;9435;52.122;5.502;2023-09-30T10:18:06;19.20;99.90
18611;DHT22;9435;52.122;5.502;2023-09-30T10:20:36;19.20;99.90
18611;DHT22;9435;52.122;5.502;2023-09-30T10:23:23;19.30;99.90
18611;DHT22;9435;52.122;5.502;2023-09-30T10:25:53;19.40;99.90
18611;DHT22;9435;52.122;5.502;2023-09-30T10:28:36;19.50;99.90
18611;DHT22;9435;52.122;5.502;2023-09-30T10:31:11;19.60;99.90
18611;DHT22;9435;52.122;5.502;2023-09-30T10:34:20;19.60;99.90
18611;DHT22;9435;52.122;5.502;2023-09-30T10:36:48;19.80;99.90
18611;DHT22;9435;52.122;5.502;2023-09-30T10:39:53;19.90;99.90
18611;DHT22;9435;52.122;5.502;2023-09-30T10:42:45;19.90;99.90
18611;DHT22;9435;52.122;5.502;2023-09-30T10:45:44;19.80;99.90
18611;DHT22;9435;52.122;5.502;2023-09-30T10:48:37;19.60;99.90
18611;DHT22;9435;52.122;5.502;2023-09-30T10:51:16;19.50;99.90
18611;DHT22;9435;52.122;5.502;2023-09-30T10:53:46;19.60;99.90
18611;DHT22;9435;52.122;5.502;2023-09-30T10:56:15;19.40;99.90
18611;DHT22;9435;52.122;5.502;2023-09-30T10:58:43;19.40;99.90
18611;DHT22;9435;52.122;5.502;2023-09-30T11:01:11;19.30;99.90
18611;DHT22;9435;52.122;5.502;2023-09-30T11:03:39;19.20;99.90
18611;DHT22;9435;52.122;5.502;2023-09-30T11:06:07;19.20;99.90
18611;DHT22;9435;52.122;5.502;2023-09-30T11:08:37;19.20;99.90
18611;DHT22;9435;52.122;5.502;2023-09-30T11:11:04;19.00;99.90
18611;DHT22;9435;52.122;5.502;2023-09-30T11:13:32;18.90;99.90
18611;DHT22;9435;52.122;5.502;2023-09-30T11:16:01;18.80;99.90
18611;DHT22;9435;52.122;5.502;2023-09-30T11:18:30;19.00;99.90
18611;DHT22;9435;52.122;5.502;2023-09-30T11:21:05;19.10;99.90
18611;DHT22;9435;52.122;5.502;2023-09-30T11:23:33;19.20;99.90
18611;DHT22;9435;52.122;5.502;2023-09-30T11:26:03;19.40;99.90
18611;DHT22;9435;52.122;5.502;2023-09-30T11:28:38;19.70;99.90
18611;DHT22;9435;52.122;5.502;2023-09-30T11:31:09;20.00;99.90
18611;DHT22;9435;52.122;5.502;2023-09-30T11:33:51;20.20;99.90
18611;DHT22;9435;52.122;5.502;2023-09-30T11:36:19;20.30;99.90
18611;DHT22;9435;52.122;5.502;2023-09-30T11:38:48;20.40;99.90
18611;DHT22;9435;52.122;5.502;2023-09-30T11:41:17;20.50;99.90
18611;DHT22;9435;52.122;5.502;2023-09-30T11:44:02;20.40;99.90
18611;DHT22;9435;52.122;5.502;2023-09-30T11:46:30;20.10;99.90
18611;DHT22;9435;52.122;5.502;2023-09-30T11:49:01;20.00;99.90
18611;DHT22;9435;52.122;5.502;2023-09-30T11:51:29;19.90;99.90
18611;DHT22;9435;52.122;5.502;2023-09-30T11:53:57;19.90;99.90
18611;DHT22;9435;52.122;5.502;2023-09-30T11:56:26;19.90;99.90
18611;DHT22;9435;52.122;5.502;2023-09-30T11:58:55;20.00;99.90
18611;DHT22;9435;52.122;5.502;2023-09-30T12:01:24;20.00;99.90
18611;DHT22;9435;52.122;5.502;2023-09-30T12:03:52;20.00;99.90
18611;DHT22;9435;52.122;5.502;2023-09-30T12:06:22;20.20;99.90
18611;DHT22;9435;52.122;5.502;2023-09-30T12:08:50;20.00;99.90
18611;DHT22;9435;52.122;5.502;2023-09-30T12:11:18;20.10;99.90
18611;DHT22;9435;52.122;5.502;2023-09-30T12:13:46;20.10;99.90
18611;DHT22;9435;52.122;5.502;2023-09-30T12:16:15;20.20;99.90
18611;DHT22;9435;52.122;5.502;2023-09-30T12:18:44;20.20;99.90
18611;DHT22;9435;52.122;5.502;2023-09-30T12:21:12;20.10;99.90
18611;DHT22;9435;52.122;5.502;2023-09-30T12:23:40;20.10;99.90
18611;DHT22;9435;52.122;5.502;2023-09-30T12:26:07;20.10;99.90
18611;DHT22;9435;52.122;5.502;2023-09-30T12:28:34;20.00;99.90
18611;DHT22;9435;52.122;5.502;2023-09-30T12:31:03;20.00;99.90
18611;DHT22;9435;52.122;5.502;2023-09-30T12:33:31;20.30;99.90
18611;DHT22;9435;52.122;5.502;2023-09-30T12:35:58;20.20;99.90
18611;DHT22;9435;52.122;5.502;2023-09-30T12:38:25;20.20;99.90
18611;DHT22;9435;52.122;5.502;2023-09-30T12:40:54;20.20;99.90
18611;DHT22;9435;52.122;5.502;2023-09-30T12:43:21;20.10;99.90
18611;DHT22;9435;52.122;5.502;2023-09-30T12:45:48;20.10;99.90
18611;DHT22;9435;52.122;5.502;2023-09-30T12:48:16;20.00;99.90
18611;DHT22;9435;52.122;5.502;2023-09-30T12:50:44;19.90;99.90
18611;DHT22;9435;52.122;5.502;2023-09-30T12:53:11;19.90;99.90
18611;DHT22;9435;52.122;5.502;2023-09-30T12:55:38;19.90;99.90
18611;DHT22;9435;52.122;5.502;2023-09-30T12:58:05;19.90;99.90
18611;DHT22;9435;52.122;5.502;2023-09-30T13:00:33;19.90;99.90
18611;DHT22;9435;52.122;5.502;2023-09-30T13:03:02;19.90;99.90
18611;DHT22;9435;52.122;5.502;2023-09-30T13:05:30;19.90;99.90
18611;DHT22;9435;52.122;5.502;2023-09-30T13:07:58;19.80;99.90
18611;DHT22;9435;52.122;5.502;2023-09-30T13:10:25;19.80;99.90
18611;DHT22;9435;52.122;5.502;2023-09-30T13:12:52;19.70;99.90
18611;DHT22;9435;52.122;5.502;2023-09-30T13:15:20;19.80;99.90
18611;DHT22;9435;52.122;5.502;2023-09-30T13:17:50;19.90;99.90
18611;DHT22;9435;52.122;5.502;2023-09-30T13:20:17;19.80;99.90
18611;DHT22;9435;52.122;5.502;2023-09-30T13:22:45;19.80;99.90
18611;DHT22;9435;52.122;5.502;2023-09-30T13:25:13;19.90;99.90
18611;DHT22;9435;52.122;5.502;2023-09-30T13:27:41;19.80;99.90
18611;DHT22;9435;52.122;5.502;2023-09-30T13:30:09;19.80;99.90
18611;DHT22;9435;52.122;5.502;2023-09-30T13:32:37;19.70;99.90
18611;DHT22;9435;52.122;5.502;2023-09-30T13:35:04;19.80;99.90
18611;DHT22;9435;52.122;5.502;2023-09-30T13:37:32;19.70;99.90
18611;DHT22;9435;52.122;5.502;2023-09-30T13:40:02;19.60;99.90
18611;DHT22;9435;52.122;5.502;2023-09-30T13:42:30;19.50;99.90
18611;DHT22;9435;52.122;5.502;2023-09-30T13:44:57;19.50;99.90
18611;DHT22;9435;52.122;5.502;2023-09-30T13:47:25;19.40;99.90
18611;DHT22;9435;52.122;5.502;2023-09-30T13:49:52;19.50;99.90
18611;DHT22;9435;52.122;5.502;2023-09-30T13:52:20;19.40;99.90
18611;DHT22;9435;52.122;5.502;2023-09-30T13:54:48;19.40;99.90
18611;DHT22;9435;52.122;5.502;2023-09-30T13:57:16;19.40;99.90
18611;DHT22;9435;52.122;5.502;2023-09-30T13:59:43;19.50;99.90
18611;DHT22;9435;52.122;5.502;2023-09-30T14:02:11;19.50;99.90
18611;DHT22;9435;52.122;5.502;2023-09-30T14:04:38;19.50;99.90
18611;DHT22;9435;52.122;5.502;2023-09-30T14:07:05;19.50;99.90
18611;DHT22;9435;52.122;5.502;2023-09-30T14:09:33;19.50;99.90
18611;DHT22;9435;52.122;5.502;2023-09-30T14:12:01;19.50;99.90
18611;DHT22;9435;52.122;5.502;2023-09-30T14:14:32;19.50;99.90
18611;DHT22;9435;52.122;5.502;2023-09-30T14:17:00;19.50;99.90
18611;DHT22;9435;52.122;5.502;2023-09-30T14:19:33;19.40;99.90
18611;DHT22;9435;52.122;5.502;2023-09-30T14:22:00;19.40;99.90
18611;DHT22;9435;52.122;5.502;2023-09-30T14:24:29;19.40;99.90
18611;DHT22;9435;52.122;5.502;2023-09-30T14:26:57;19.40;99.90
18611;DHT22;9435;52.122;5.502;2023-09-30T14:29:24;19.40;99.90
18611;DHT22;9435;52.122;5.502;2023-09-30T14:31:53;19.40;99.90
18611;DHT22;9435;52.122;5.502;2023-09-30T14:34:20;19.40;99.90
18611;DHT22;9435;52.122;5.502;2023-09-30T14:36:47;19.50;99.90
18611;DHT22;9435;52.122;5.502;2023-09-30T14:39:14;19.40;99.90
18611;DHT22;9435;52.122;5.502;2023-09-30T14:41:42;19.50;99.90
18611;DHT22;9435;52.122;5.502;2023-09-30T14:44:09;19.50;99.90
18611;DHT22;9435;52.122;5.502;2023-09-30T14:46:37;19.40;99.90
18611;DHT22;9435;52.122;5.502;2023-09-30T14:49:06;19.40;99.90
18611;DHT22;9435;52.122;5.502;2023-09-30T14:51:34;19.30;99.90
18611;DHT22;9435;52.122;5.502;2023-09-30T14:54:02;19.30;99.90
18611;DHT22;9435;52.122;5.502;2023-09-30T14:56:31;19.30;99.90
18611;DHT22;9435;52.122;5.502;2023-09-30T14:58:59;19.20;99.90
18611;DHT22;9435;52.122;5.502;2023-09-30T15:01:28;19.30;99.90
18611;DHT22;9435;52.122;5.502;2023-09-30T15:03:55;19.20;99.90
18611;DHT22;9435;52.122;5.502;2023-09-30T15:06:24;19.30;99.90
18611;DHT22;9435;52.122;5.502;2023-09-30T15:08:51;19.30;99.90
18611;DHT22;9435;52.122;5.502;2023-09-30T15:11:18;19.20;99.90
18611;DHT22;9435;52.122;5.502;2023-09-30T15:13:45;19.30;99.90
18611;DHT22;9435;52.122;5.502;2023-09-30T15:16:17;19.30;99.90
18611;DHT22;9435;52.122;5.502;2023-09-30T15:18:45;19.20;99.90
18611;DHT22;9435;52.122;5.502;2023-09-30T15:21:12;19.20;99.90
18611;DHT22;9435;52.122;5.502;2023-09-30T15:23:42;19.20;99.90
18611;DHT22;9435;52.122;5.502;2023-09-30T15:26:09;19.20;99.90
18611;DHT22;9435;52.122;5.502;2023-09-30T15:28:37;19.20;99.90
18611;DHT22;9435;52.122;5.502;2023-09-30T15:31:04;19.10;99.90
18611;DHT22;9435;52.122;5.502;2023-09-30T15:33:32;19.00;99.90
18611;DHT22;9435;52.122;5.502;2023-09-30T15:35:59;19.00;99.90
18611;DHT22;9435;52.122;5.502;2023-09-30T15:38:26;18.90;99.90
18611;DHT22;9435;52.122;5.502;2023-09-30T15:40:56;18.90;99.90
18611;DHT22;9435;52.122;5.502;2023-09-30T15:43:24;18.90;99.90
18611;DHT22;9435;52.122;5.502;2023-09-30T15:45:51;18.90;99.90
18611;DHT22;9435;52.122;5.502;2023-09-30T15:48:19;18.80;99.90
18611;DHT22;9435;52.122;5.502;2023-09-30T15:50:46;18.70;99.90
18611;DHT22;9435;52.122;5.502;2023-09-30T15:53:14;18.60;99.90
18611;DHT22;9435;52.122;5.502;2023-09-30T15:55:41;18.70;99.90